Huvudsida
METAR-TAF:

METAR-TAF

Flygplatser :

Port Moresby, Papua Nya Guinea

latitud: 09-26S, longitud: 147-13E, höjd: 38 m

Aktuellt väderrapport

Denna rapport gjordes för 30 minuter sedan, klockan 13:00 UTC
Vind 5 kt från sydost
Temperatur 27°C
Fuktighet 89%
Tryck 1011 hPa
Sikt 10 km eller mer
Brutna moln på en höjd av 1200 ft
Få moln på en höjd av 1000 ft

METAR: AYPY 151300Z 14005KT 9999 BKN012 FEW010 27/25 Q1011

Tid: 23:30 (13:30 UTC)

Väderprognos

Denna rapport gjordes för 11 timmar och 29 minuter sedan, klockan 02:01 UTC
Prognos gäller från 15 kl. 06 UTC till 16 kl. 06 UTC
Vind 7 kt från syd
Sikt 10 km eller mer
Spridda moln på en höjd av 1800 ft
Brutna moln på en höjd av 14000 ft
lätta regnskurar
Från 15 kl. 1000 UTC
Vind 3 kt varierande vindriktning
Sikt 10 km eller mer
Spridda moln på en höjd av 4000 ft
Brutna moln på en höjd av 14000 ft

TAF: AYPY 150201Z 1506/1606 19007KT 9999 -SHRA SCT018 BKN140 FM151000 VRB03KT 9999 SCT040 BKN140

Aktuella väderrapporter och prognoser från 4000 flygplatser (METAR- och TAF-rapporter).

De tillgängliga stationerna syns som gula och röda prickar på kartan.

För musen över prickarna för att se namnen på stationerna.

Klicka sedan för att få väderrapporter och prognoser.

För att ändra kartan: Klicka på de gröna knapparna med ett svart kors på för att zooma in; den gröna knappen med ett streck på för att zooma ut; eller på de gröna pilarna för angränsande kartor.


METAR-TAF: